createdAt,value
2018-11-10T00:00:18.741Z,93.30
2018-11-10T00:02:48.754Z,93.30
2018-11-10T00:05:18.682Z,93.40
2018-11-10T00:07:47.643Z,93.40
2018-11-10T00:10:17.664Z,93.40
2018-11-10T00:12:47.179Z,93.40
2018-11-10T00:15:16.456Z,93.40
2018-11-10T00:17:47.626Z,93.40
2018-11-10T00:20:16.538Z,93.50
2018-11-10T00:22:45.468Z,93.50
2018-11-10T00:25:14.927Z,93.50
2018-11-10T00:27:45.014Z,93.50
2018-11-10T00:30:18.376Z,93.50
2018-11-10T00:32:48.022Z,93.70
2018-11-10T00:35:17.028Z,93.50
2018-11-10T00:37:46.410Z,93.50
2018-11-10T00:40:16.868Z,93.50
2018-11-10T00:42:46.376Z,93.60
2018-11-10T00:45:15.327Z,93.60
2018-11-10T00:47:45.064Z,93.60
2018-11-10T00:50:14.245Z,93.60
2018-11-10T00:52:43.886Z,93.70
2018-11-10T00:55:13.174Z,94.10
2018-11-10T00:57:42.108Z,93.80
2018-11-10T01:00:12.326Z,93.70
2018-11-10T01:02:42.305Z,93.80
2018-11-10T01:05:11.348Z,93.80
2018-11-10T01:07:40.814Z,93.80
2018-11-10T01:10:11.333Z,93.90
2018-11-10T01:12:40.590Z,93.80
2018-11-10T01:15:12.257Z,93.80
2018-11-10T01:17:42.082Z,93.90
2018-11-10T01:20:11.824Z,94.00
2018-11-10T01:22:40.917Z,94.00
2018-11-10T01:25:11.045Z,94.00
2018-11-10T01:27:40.021Z,94.00
2018-11-10T01:30:13.451Z,94.00
2018-11-10T01:32:43.443Z,94.00
2018-11-10T01:35:12.837Z,94.00
2018-11-10T01:37:41.823Z,94.10
2018-11-10T01:40:12.355Z,94.10
2018-11-10T01:42:41.946Z,94.10
2018-11-10T01:45:14.276Z,94.10
2018-11-10T01:47:43.947Z,94.10
2018-11-10T01:50:12.916Z,94.10
2018-11-10T01:52:42.337Z,94.10
2018-11-10T01:55:12.025Z,94.10
2018-11-10T01:57:41.616Z,94.10
2018-11-10T02:00:13.109Z,94.10
2018-11-10T02:02:43.433Z,94.40
2018-11-10T02:05:12.552Z,94.00
2018-11-10T02:07:41.687Z,94.10
2018-11-10T02:10:11.491Z,94.20
2018-11-10T02:12:40.974Z,94.20
2018-11-10T02:15:12.042Z,94.20
2018-11-10T02:17:41.096Z,94.20
2018-11-10T02:20:12.252Z,94.30
2018-11-10T02:22:41.438Z,94.30
2018-11-10T02:25:11.967Z,94.30
2018-11-10T02:27:41.086Z,94.30
2018-11-10T02:30:11.606Z,94.30
2018-11-10T02:32:40.978Z,94.30
2018-11-10T02:35:10.892Z,94.30
2018-11-10T02:37:40.422Z,94.40
2018-11-10T02:40:11.932Z,94.40
2018-11-10T02:42:40.323Z,94.40
2018-11-10T02:45:10.533Z,94.40
2018-11-10T02:47:39.648Z,94.30
2018-11-10T02:50:09.058Z,94.30
2018-11-10T02:52:38.406Z,94.40
2018-11-10T02:55:09.588Z,94.50
2018-11-10T02:57:38.706Z,94.50
2018-11-10T03:00:09.530Z,94.50
2018-11-10T03:02:38.744Z,94.60
2018-11-10T03:05:08.323Z,94.70
2018-11-10T03:07:38.240Z,94.80
2018-11-10T03:10:08.279Z,94.80
2018-11-10T03:12:38.237Z,94.80
2018-11-10T03:15:08.273Z,94.80
2018-11-10T03:17:37.594Z,94.80
2018-11-10T03:20:08.960Z,94.80
2018-11-10T03:22:37.928Z,94.70
2018-11-10T03:25:07.305Z,94.90
2018-11-10T03:27:36.289Z,94.80
2018-11-10T03:30:05.831Z,94.80
2018-11-10T03:32:35.045Z,94.90
2018-11-10T03:35:03.531Z,94.90
2018-11-10T03:37:32.226Z,94.80
2018-11-10T03:40:01.191Z,94.60
2018-11-10T03:42:29.604Z,94.90
2018-11-10T03:44:58.863Z,94.80
2018-11-10T03:47:27.990Z,94.90
2018-11-10T03:49:56.398Z,95.00
2018-11-10T03:52:25.357Z,95.00
2018-11-10T03:54:53.749Z,95.00
2018-11-10T03:57:22.805Z,95.30
2018-11-10T03:59:51.805Z,94.90
2018-11-10T04:02:20.770Z,95.00
2018-11-10T04:04:49.155Z,95.00
2018-11-10T04:07:17.909Z,95.00
2018-11-10T04:09:46.896Z,95.00
2018-11-10T04:12:15.408Z,95.00
2018-11-10T04:14:44.515Z,95.00
2018-11-10T04:17:13.522Z,95.00
2018-11-10T04:19:41.923Z,95.00
2018-11-10T04:22:10.338Z,95.00
2018-11-10T04:24:38.849Z,95.00
2018-11-10T04:27:07.845Z,95.40
2018-11-10T04:29:36.853Z,95.10
2018-11-10T04:32:05.848Z,95.10
2018-11-10T04:34:34.529Z,95.10
2018-11-10T04:37:03.010Z,95.10
2018-11-10T04:39:32.102Z,95.10
2018-11-10T04:42:01.263Z,95.10
2018-11-10T04:44:29.682Z,95.10
2018-11-10T04:46:58.930Z,95.10
2018-11-10T04:49:27.864Z,95.10
2018-11-10T04:51:56.928Z,95.10
2018-11-10T04:54:25.363Z,95.20
2018-11-10T04:56:53.884Z,95.20
2018-11-10T04:59:23.398Z,95.20
2018-11-10T05:01:52.542Z,95.30
2018-11-10T05:04:21.099Z,95.30
2018-11-10T05:06:50.140Z,95.30
2018-11-10T05:09:18.723Z,95.20
2018-11-10T05:11:47.130Z,95.30
2018-11-10T05:14:15.629Z,95.50
2018-11-10T05:16:44.733Z,95.30
2018-11-10T05:19:13.123Z,95.30
2018-11-10T05:21:41.533Z,95.30
2018-11-10T05:24:09.952Z,95.30
2018-11-10T05:26:38.457Z,95.40
2018-11-10T05:29:08.275Z,95.40
2018-11-10T05:31:37.006Z,95.40
2018-11-10T05:34:06.237Z,95.40
2018-11-10T05:36:35.229Z,95.40
2018-11-10T05:39:04.971Z,95.50
2018-11-10T05:41:33.381Z,95.50
2018-11-10T05:44:01.798Z,95.50
2018-11-10T05:46:30.229Z,95.50
2018-11-10T05:48:58.691Z,95.50
2018-11-10T05:51:27.842Z,95.50
2018-11-10T05:53:56.499Z,95.50
2018-11-10T05:56:25.009Z,95.60
2018-11-10T05:58:53.585Z,95.60
2018-11-10T06:01:22.183Z,95.60
2018-11-10T06:03:51.415Z,95.60
2018-11-10T06:06:20.391Z,95.60
2018-11-10T06:08:49.476Z,95.60
2018-11-10T06:11:18.083Z,95.70
2018-11-10T06:13:46.501Z,95.60
2018-11-10T06:16:15.576Z,95.60
2018-11-10T06:18:44.729Z,95.60
2018-11-10T06:21:13.934Z,95.60
2018-11-10T06:23:42.973Z,95.60
2018-11-10T06:26:11.998Z,95.70
2018-11-10T06:28:40.542Z,95.60
2018-11-10T06:31:09.530Z,95.70
2018-11-10T06:33:38.650Z,95.70
2018-11-10T06:36:08.247Z,95.70
2018-11-10T06:38:36.705Z,95.70
2018-11-10T06:41:05.966Z,95.70
2018-11-10T06:43:35.386Z,95.70
2018-11-10T06:46:04.557Z,95.70
2018-11-10T06:48:35.254Z,95.60
2018-11-10T06:51:04.472Z,95.60
2018-11-10T06:53:33.739Z,95.60
2018-11-10T06:56:02.798Z,95.60
2018-11-10T06:58:31.754Z,95.90
2018-11-10T07:01:01.132Z,95.40
2018-11-10T07:03:30.256Z,95.60
2018-11-10T07:05:59.482Z,95.60
2018-11-10T07:08:28.513Z,95.50
2018-11-10T07:10:57.546Z,95.50
2018-11-10T07:13:26.524Z,95.50
2018-11-10T07:15:54.968Z,95.50
2018-11-10T07:18:24.151Z,95.40
2018-11-10T07:20:53.342Z,95.40
2018-11-10T07:23:29.043Z,95.30
2018-11-10T07:25:58.125Z,95.30
2018-11-10T07:28:27.534Z,95.30
2018-11-10T07:30:56.590Z,95.30
2018-11-10T07:33:25.569Z,95.30
2018-11-10T07:35:54.527Z,95.20
2018-11-10T07:38:23.666Z,95.20
2018-11-10T07:40:52.681Z,95.10
2018-11-10T07:43:21.895Z,95.10
2018-11-10T07:45:50.886Z,95.10
2018-11-10T07:48:19.936Z,95.00
2018-11-10T07:50:48.927Z,95.00
2018-11-10T07:53:17.981Z,94.90
2018-11-10T07:55:47.015Z,94.80
2018-11-10T07:58:16.328Z,94.80
2018-11-10T08:00:45.603Z,94.70
2018-11-10T08:03:14.671Z,94.60
2018-11-10T08:05:43.629Z,94.60
2018-11-10T08:08:12.851Z,94.50
2018-11-10T08:10:42.052Z,94.40
2018-11-10T08:13:11.079Z,94.30
2018-11-10T08:15:40.113Z,94.20
2018-11-10T08:18:09.290Z,94.10
2018-11-10T08:20:38.413Z,94.00
2018-11-10T08:23:07.362Z,93.90
2018-11-10T08:25:36.561Z,93.80
2018-11-10T08:28:05.694Z,93.70
2018-11-10T08:30:34.837Z,93.60
2018-11-10T08:33:03.931Z,93.50
2018-11-10T08:35:33.120Z,93.50
2018-11-10T08:38:02.328Z,93.30
2018-11-10T08:40:31.424Z,93.10
2018-11-10T08:43:00.516Z,92.80
2018-11-10T08:45:29.496Z,92.80
2018-11-10T08:47:58.724Z,92.60
2018-11-10T08:50:27.731Z,92.60
2018-11-10T08:52:56.746Z,92.40
2018-11-10T08:55:25.744Z,92.20
2018-11-10T08:57:54.850Z,92.20
2018-11-10T09:00:24.084Z,92.20
2018-11-10T09:02:53.262Z,91.90
2018-11-10T09:05:22.304Z,91.80
2018-11-10T09:07:51.356Z,91.70
2018-11-10T09:10:20.458Z,91.40
2018-11-10T09:12:49.576Z,91.20
2018-11-10T09:15:18.868Z,91.30
2018-11-10T09:17:48.350Z,91.10
2018-11-10T09:20:17.756Z,91.20
2018-11-10T09:22:46.894Z,91.10
2018-11-10T09:25:17.431Z,91.00
2018-11-10T09:27:46.537Z,90.90
2018-11-10T09:30:16.595Z,90.60
2018-11-10T09:32:46.528Z,90.50
2018-11-10T09:35:15.927Z,90.30
2018-11-10T09:37:45.059Z,90.30
2018-11-10T09:40:15.448Z,90.20
2018-11-10T09:42:44.650Z,90.10
2018-11-10T09:45:15.475Z,90.10
2018-11-10T09:47:44.495Z,90.20
2018-11-10T09:50:16.679Z,89.50
2018-11-10T09:52:46.334Z,89.00
2018-11-10T09:55:22.139Z,89.20
2018-11-10T09:57:51.125Z,87.90
2018-11-10T10:00:21.217Z,87.50
2018-11-10T10:02:50.917Z,87.20
2018-11-10T10:05:19.986Z,86.90
2018-11-10T10:07:49.467Z,86.90
2018-11-10T10:10:18.837Z,87.10
2018-11-10T10:12:49.095Z,87.10
2018-11-10T10:15:19.983Z,87.00
2018-11-10T10:17:49.074Z,86.80
2018-11-10T10:20:19.294Z,86.60
2018-11-10T10:22:49.105Z,86.30
2018-11-10T10:25:19.133Z,86.50
2018-11-10T10:27:50.128Z,86.60
2018-11-10T10:30:23.662Z,86.10
2018-11-10T10:32:52.766Z,85.90
2018-11-10T10:35:21.865Z,86.10
2018-11-10T10:37:51.645Z,86.30
2018-11-10T10:40:20.918Z,86.40
2018-11-10T10:42:50.133Z,86.40
2018-11-10T10:45:20.728Z,85.70
2018-11-10T10:47:49.905Z,86.10
2018-11-10T10:50:20.336Z,86.00
2018-11-10T10:52:49.274Z,85.90
2018-11-10T10:55:19.218Z,85.80
2018-11-10T10:57:49.438Z,85.40
2018-11-10T11:00:23.802Z,85.10
2018-11-10T11:04:01.643Z,84.90
2018-11-10T11:06:30.715Z,85.00
2018-11-10T11:08:59.719Z,84.70
2018-11-10T11:11:28.884Z,84.50
2018-11-10T11:13:58.056Z,84.40
2018-11-10T11:16:26.456Z,84.20
2018-11-10T11:18:55.440Z,83.60
2018-11-10T11:21:24.522Z,83.40
2018-11-10T11:23:53.560Z,82.50
2018-11-10T11:26:22.557Z,82.50
2018-11-10T11:28:51.736Z,82.10
2018-11-10T11:31:20.698Z,81.50
2018-11-10T11:33:49.664Z,81.00
2018-11-10T11:36:18.944Z,81.00
2018-11-10T11:38:47.928Z,80.70
2018-11-10T11:41:17.051Z,80.50
2018-11-10T11:43:46.291Z,80.50
2018-11-10T11:46:15.488Z,80.50
2018-11-10T11:48:44.488Z,80.50
2018-11-10T11:51:13.507Z,80.10
2018-11-10T11:53:42.479Z,80.10
2018-11-10T11:56:11.656Z,79.60
2018-11-10T11:58:40.703Z,79.50
2018-11-10T12:01:10.073Z,79.50
2018-11-10T12:03:39.299Z,79.40
2018-11-10T12:06:08.202Z,79.00
2018-11-10T12:08:37.337Z,78.90
2018-11-10T12:11:06.633Z,78.40
2018-11-10T12:13:35.528Z,78.90
2018-11-10T12:16:04.648Z,79.10
2018-11-10T12:18:33.903Z,78.00
2018-11-10T12:21:02.987Z,78.70
2018-11-10T12:23:32.210Z,78.80
2018-11-10T12:26:01.311Z,78.10
2018-11-10T12:28:30.359Z,78.40
2018-11-10T12:30:59.299Z,78.40
2018-11-10T12:33:28.518Z,78.20
2018-11-10T12:35:57.541Z,77.40
2018-11-10T12:38:26.594Z,77.50
2018-11-10T12:40:55.569Z,77.30
2018-11-10T12:43:24.798Z,77.40
2018-11-10T12:45:54.064Z,77.10
2018-11-10T12:48:23.061Z,76.40
2018-11-10T12:50:52.126Z,76.50
2018-11-10T12:53:21.171Z,76.40
2018-11-10T12:55:50.185Z,76.00
2018-11-10T12:58:19.369Z,75.70
2018-11-10T13:00:48.370Z,76.10
2018-11-10T13:03:17.465Z,76.30
2018-11-10T13:05:46.822Z,76.50
2018-11-10T13:08:16.091Z,76.60
2018-11-10T13:10:45.360Z,76.80
2018-11-10T13:13:14.504Z,76.60
2018-11-10T13:15:43.949Z,76.80
2018-11-10T13:18:13.044Z,76.50
2018-11-10T13:20:42.116Z,76.70
2018-11-10T13:23:11.236Z,77.00
2018-11-10T13:25:40.298Z,76.80
2018-11-10T13:28:10.844Z,76.80
2018-11-10T13:30:39.969Z,76.80
2018-11-10T13:33:09.231Z,76.50
2018-11-10T13:35:38.299Z,76.90
2018-11-10T13:38:07.519Z,76.50
2018-11-10T13:40:36.702Z,76.30
2018-11-10T13:43:06.259Z,75.60
2018-11-10T13:45:35.315Z,76.20
2018-11-10T13:48:04.317Z,76.50
2018-11-10T13:50:33.399Z,76.50
2018-11-10T13:53:02.987Z,76.60
2018-11-10T13:55:31.951Z,76.70
2018-11-10T13:58:01.151Z,76.80
2018-11-10T14:00:30.382Z,77.00
2018-11-10T14:02:59.378Z,77.00
2018-11-10T14:05:28.669Z,77.00
2018-11-10T14:07:58.190Z,77.00
2018-11-10T14:10:27.374Z,77.20
2018-11-10T14:12:56.671Z,77.40
2018-11-10T14:15:25.842Z,77.20
2018-11-10T14:17:54.902Z,77.20
2018-11-10T14:20:23.949Z,77.20
2018-11-10T14:22:53.221Z,77.10
2018-11-10T14:25:22.485Z,76.90
2018-11-10T14:27:51.542Z,76.90
2018-11-10T14:30:20.901Z,77.00
2018-11-10T14:32:50.005Z,77.20
2018-11-10T14:35:19.073Z,77.30
2018-11-10T14:37:48.109Z,78.40
2018-11-10T14:40:18.105Z,77.80
2018-11-10T14:42:47.170Z,78.00
2018-11-10T14:45:17.936Z,78.20
2018-11-10T14:47:46.899Z,78.40
2018-11-10T14:50:16.930Z,78.50
2018-11-10T14:52:45.968Z,78.80
2018-11-10T14:55:15.518Z,79.00
2018-11-10T14:57:44.599Z,79.30
2018-11-10T15:00:16.505Z,79.50
2018-11-10T15:02:45.474Z,79.70
2018-11-10T15:05:14.835Z,79.90
2018-11-10T15:07:44.469Z,80.20
2018-11-10T15:10:14.696Z,80.40
2018-11-10T15:12:44.602Z,80.50
2018-11-10T15:15:14.644Z,80.80
2018-11-10T15:17:44.210Z,80.90
2018-11-10T15:20:14.695Z,81.00
2018-11-10T15:22:43.691Z,81.40
2018-11-10T15:25:15.054Z,81.70
2018-11-10T15:27:44.153Z,82.00
2018-11-10T15:30:20.741Z,82.00
2018-11-10T15:32:50.215Z,82.30
2018-11-10T15:35:21.557Z,82.50
2018-11-10T15:37:51.762Z,82.90
2018-11-10T15:40:21.360Z,83.20
2018-11-10T15:42:50.372Z,83.50
2018-11-10T15:45:20.036Z,83.50
2018-11-10T15:47:48.998Z,83.80
2018-11-10T15:50:18.800Z,84.10
2018-11-10T15:52:47.976Z,84.30
2018-11-10T15:55:16.948Z,84.50
2018-11-10T15:57:45.932Z,84.70
2018-11-10T16:00:16.470Z,84.90
2018-11-10T16:02:45.418Z,85.10
2018-11-10T16:05:14.850Z,85.40
2018-11-10T16:07:43.797Z,85.60
2018-11-10T16:10:13.212Z,85.80
2018-11-10T16:12:42.482Z,86.10
2018-11-10T16:15:13.305Z,86.60
2018-11-10T16:17:42.561Z,86.50
2018-11-10T16:20:15.569Z,86.60
2018-11-10T16:22:46.224Z,86.60
2018-11-10T16:25:15.627Z,86.50
2018-11-10T16:27:44.756Z,86.50
2018-11-10T16:30:16.167Z,86.50
2018-11-10T16:32:45.736Z,86.60
2018-11-10T16:35:14.773Z,87.40
2018-11-10T16:37:43.873Z,86.80
2018-11-10T16:40:14.997Z,86.80
2018-11-10T16:42:44.927Z,87.10
2018-11-10T16:45:14.639Z,86.80
2018-11-10T16:47:44.061Z,86.60
2018-11-10T16:50:13.410Z,86.80
2018-11-10T16:52:43.260Z,86.90
2018-11-10T16:55:12.379Z,87.10
2018-11-10T16:57:41.552Z,87.10
2018-11-10T17:00:13.984Z,87.50
2018-11-10T17:02:43.107Z,87.50
2018-11-10T17:05:12.606Z,88.50
2018-11-10T17:07:41.575Z,88.10
2018-11-10T17:10:13.474Z,88.20
2018-11-10T17:12:43.119Z,88.10
2018-11-10T17:15:12.321Z,88.20
2018-11-10T17:17:41.554Z,88.30
2018-11-10T17:20:12.816Z,88.00
2018-11-10T17:22:41.823Z,88.00
2018-11-10T17:25:11.730Z,88.10
2018-11-10T17:27:41.433Z,88.30
2018-11-10T17:30:13.347Z,88.50
2018-11-10T17:32:42.993Z,88.60
2018-11-10T17:35:12.823Z,88.80
2018-11-10T17:37:41.814Z,88.80
2018-11-10T17:40:12.233Z,88.80
2018-11-10T17:42:41.442Z,88.80
2018-11-10T17:45:12.442Z,89.00
2018-11-10T17:47:42.005Z,89.00
2018-11-10T17:50:12.209Z,89.10
2018-11-10T17:52:41.739Z,89.30
2018-11-10T17:55:12.456Z,89.40
2018-11-10T17:57:42.263Z,89.50
2018-11-10T18:00:11.680Z,89.60
2018-11-10T18:02:40.671Z,89.70
2018-11-10T18:05:11.800Z,89.80
2018-11-10T18:07:40.773Z,89.80
2018-11-10T18:10:11.936Z,90.00
2018-11-10T18:12:41.346Z,90.00
2018-11-10T18:15:12.478Z,90.10
2018-11-10T18:17:41.769Z,90.10
2018-11-10T18:20:12.211Z,90.10
2018-11-10T18:22:41.158Z,90.10
2018-11-10T18:25:10.161Z,90.10
2018-11-10T18:27:43.466Z,90.20
2018-11-10T18:30:14.001Z,90.20
2018-11-10T18:32:43.492Z,90.20
2018-11-10T18:35:13.153Z,90.20
2018-11-10T18:37:42.535Z,90.20
2018-11-10T18:40:11.545Z,90.10
2018-11-10T18:42:40.815Z,90.10
2018-11-10T18:45:10.736Z,90.00
2018-11-10T18:47:40.345Z,90.00
2018-11-10T18:50:12.508Z,89.80
2018-11-10T18:52:41.831Z,89.60
2018-11-10T18:55:11.737Z,89.50
2018-11-10T18:57:40.953Z,89.40
2018-11-10T19:00:12.160Z,89.10
2018-11-10T19:02:41.389Z,89.10
2018-11-10T19:05:12.098Z,89.00
2018-11-10T19:07:41.430Z,88.80
2018-11-10T19:10:12.768Z,88.70
2018-11-10T19:12:42.070Z,88.40
2018-11-10T19:15:14.112Z,88.30
2018-11-10T19:17:43.121Z,88.20
2018-11-10T19:20:13.434Z,88.00
2018-11-10T19:22:42.504Z,87.80
2018-11-10T19:25:12.746Z,87.80
2018-11-10T19:27:41.850Z,87.60
2018-11-10T19:30:19.040Z,87.50
2018-11-10T19:32:48.870Z,87.30
2018-11-10T19:35:18.438Z,87.30
2018-11-10T19:37:47.670Z,87.10
2018-11-10T19:40:16.599Z,87.10
2018-11-10T19:42:46.468Z,87.00
2018-11-10T19:45:15.509Z,86.90
2018-11-10T19:47:45.572Z,86.80
2018-11-10T19:50:14.948Z,86.80
2018-11-10T19:52:44.288Z,86.70
2018-11-10T19:55:15.147Z,86.40
2018-11-10T19:57:44.290Z,86.20
2018-11-10T20:00:17.301Z,86.10
2018-11-10T20:02:46.507Z,86.10
2018-11-10T20:05:15.566Z,86.10
2018-11-10T20:07:44.585Z,86.00
2018-11-10T20:10:14.201Z,86.10
2018-11-10T20:12:43.586Z,86.10
2018-11-10T20:15:13.924Z,86.10
2018-11-10T20:17:43.115Z,86.10
2018-11-10T20:20:13.735Z,86.00
2018-11-10T20:22:43.177Z,86.00
2018-11-10T20:25:13.465Z,85.90
2018-11-10T20:27:42.531Z,85.90
2018-11-10T20:30:13.944Z,85.80
2018-11-10T20:32:43.382Z,85.80
2018-11-10T20:35:13.735Z,85.80
2018-11-10T20:37:43.964Z,85.80
2018-11-10T20:40:13.899Z,85.90
2018-11-10T20:42:43.299Z,85.90
2018-11-10T20:45:15.701Z,85.90
2018-11-10T20:47:44.688Z,86.10
2018-11-10T20:50:14.456Z,86.20
2018-11-10T20:52:43.433Z,86.30
2018-11-10T20:55:13.100Z,86.50
2018-11-10T20:57:42.207Z,86.60
2018-11-10T21:00:13.656Z,86.70
2018-11-10T21:02:43.403Z,86.80
2018-11-10T21:05:13.042Z,86.80
2018-11-10T21:07:42.206Z,86.80
2018-11-10T21:10:13.813Z,86.80
2018-11-10T21:12:44.460Z,86.90
2018-11-10T21:15:14.559Z,86.90
2018-11-10T21:17:44.314Z,86.90
2018-11-10T21:20:13.471Z,86.80
2018-11-10T21:22:43.656Z,86.80
2018-11-10T21:25:14.650Z,86.90
2018-11-10T21:27:44.230Z,87.00
2018-11-10T21:30:16.473Z,87.10
2018-11-10T21:32:46.410Z,87.20
2018-11-10T21:35:15.384Z,87.30
2018-11-10T21:37:44.516Z,87.40
2018-11-10T21:40:16.851Z,87.40
2018-11-10T21:42:46.311Z,87.30
2018-11-10T21:45:16.206Z,87.30
2018-11-10T21:47:45.246Z,87.30
2018-11-10T21:50:15.584Z,87.20
2018-11-10T21:52:45.096Z,88.00
2018-11-10T21:55:16.556Z,87.10
2018-11-10T21:57:46.350Z,87.00
2018-11-10T22:00:17.252Z,87.00
2018-11-10T22:02:46.905Z,87.00
2018-11-10T22:05:15.991Z,87.00
2018-11-10T22:07:44.962Z,86.90
2018-11-10T22:10:15.723Z,87.00
2018-11-10T22:12:45.016Z,87.00
2018-11-10T22:15:16.175Z,87.00
2018-11-10T22:17:45.644Z,87.10
2018-11-10T22:20:15.797Z,87.20
2018-11-10T22:22:44.783Z,87.30
2018-11-10T22:25:14.497Z,87.50
2018-11-10T22:27:44.933Z,87.60
2018-11-10T22:30:15.143Z,87.80
2018-11-10T22:32:44.813Z,88.60
2018-11-10T22:35:13.791Z,88.00
2018-11-10T22:37:42.782Z,88.10
2018-11-10T22:40:14.311Z,88.20
2018-11-10T22:42:44.296Z,88.40
2018-11-10T22:45:14.627Z,88.40
2018-11-10T22:47:43.739Z,88.50
2018-11-10T22:50:18.080Z,88.70
2018-11-10T22:52:47.041Z,88.80
2018-11-10T22:55:16.015Z,88.80
2018-11-10T22:57:45.101Z,88.80
2018-11-10T23:00:23.895Z,88.90
2018-11-10T23:02:54.567Z,88.40
2018-11-10T23:05:24.373Z,89.10
2018-11-10T23:07:53.756Z,89.30
2018-11-10T23:10:23.077Z,89.50
2018-11-10T23:12:53.010Z,89.50
2018-11-10T23:15:22.385Z,89.60
2018-11-10T23:17:51.402Z,89.70
2018-11-10T23:20:21.450Z,89.90
2018-11-10T23:22:50.477Z,89.90
2018-11-10T23:25:19.928Z,89.90
2018-11-10T23:27:48.864Z,90.00
2018-11-10T23:30:20.230Z,90.00
2018-11-10T23:32:49.351Z,90.00
2018-11-10T23:35:18.287Z,90.00
2018-11-10T23:37:47.800Z,90.10
2018-11-10T23:40:17.298Z,90.20
2018-11-10T23:42:46.638Z,90.10
2018-11-10T23:45:16.369Z,90.20
2018-11-10T23:47:45.433Z,90.20
2018-11-10T23:50:16.126Z,90.10
2018-11-10T23:52:45.101Z,90.10
2018-11-10T23:55:14.784Z,90.10
2018-11-10T23:57:44.034Z,90.20
